Flight Track Log - Related Links

Times and Time Zones

All times are in EDT time to prevent confusion due to time zone crossing. See the DCM6791 flight status page for this flight to view local times or setup timezone preferences in your user account.

Time Position Orientation Groundspeed Altitude Reporting Facility
EDT Latitude Longitude Course Direction KTS MPH feet Rate Location/Type
Mon 12:36:36 PM 37.6422 -97.4250 192° South 98 113 1,800  Level Kansas City Center
Mon 12:37:30 PM 37.6178 -97.4314 192° South 98 113 2,800 875 Climbing Kansas City Center
Mon 12:38:12 PM 37.6058 -97.4400 210° Southwest 99 114 3,200 981 Climbing Kansas City Center
Mon 12:39:14 PM 37.5864 -97.4728 233° Southwest 100 115 4,500 1,104 Climbing Kansas City Center
Mon 12:40:17 PM 37.5850 -97.4925 265° West 101 116 5,500 864 Climbing Kansas City Center
Mon 12:41:19 PM 37.6161 -97.4839 12° North 112 129 6,300 677 Climbing Kansas City Center
Mon 12:42:21 PM 37.6469 -97.4753 12° North 112 129 6,900 339 Climbing Kansas City Center
Mon 12:43:23 PM 37.6872 -97.4628 14° North 138 159 7,000 48 Climbing Kansas City Center
Mon 12:44:25 PM 37.7350 -97.4475 14° North 171 197 7,000  Level Kansas City Center
Mon 12:45:27 PM 37.7914 -97.4300 14° North 174 200 7,000  Level Kansas City Center
Mon 12:46:29 PM 37.8386 -97.4153 14° North 175 201 7,000  Level Kansas City Center
Mon 12:47:31 PM 37.8869 -97.4006 14° North 178 205 7,000  Level Kansas City Center
Mon 12:48:33 PM 37.9350 -97.3850 14° North 179 206 7,000  Level Kansas City Center
Mon 12:49:35 PM 37.9828 -97.3700 14° North 177 204 7,000  Level Kansas City Center
Mon 12:50:37 PM 38.0400 -97.3528 13° North 176 203 7,000  Level Kansas City Center
Mon 12:51:39 PM 38.0872 -97.3383 14° North 176 203 7,000  Level Kansas City Center
Mon 12:52:41 PM 38.1342 -97.3233 14° North 174 200 7,000  Level Kansas City Center
Mon 12:53:43 PM 38.1819 -97.3092 13° North 176 203 7,000  Level Kansas City Center
Mon 12:54:45 PM 38.2286 -97.2939 14° North 173 199 7,000  Level Kansas City Center
Mon 12:55:47 PM 38.2761 -97.2792 14° North 175 201 7,000  Level Kansas City Center
Mon 12:57:00 PM 38.3388 -97.2543 17° North  Level FlightAware Approximate
Mon 12:57:51 PM 38.3792 -97.2464 17° North 175 201 7,000  Level Kansas City Center
Mon 12:58:53 PM 38.4258 -97.2322 13° North 173 199 7,000  Level Kansas City Center
Mon 12:59:56 PM 38.4658 -97.1881 41° Northeast 185 213 7,000  Level Kansas City Center
Mon 01:00:57 PM 38.5044 -97.1425 43° Northeast 181 208 7,000  Level Kansas City Center
Mon 01:01:59 PM 38.5403 -97.0933 47° Northeast 180 207 7,000  Level Kansas City Center
Mon 01:03:01 PM 38.5744 -97.0483 46° Northeast 181 208 7,000  Level Kansas City Center
Mon 01:04:03 PM 38.6103 -96.9992 47° Northeast 182 209 7,000  Level Kansas City Center
Mon 01:05:05 PM 38.6458 -96.9508 47° Northeast 180 207 7,000  Level Kansas City Center
Mon 01:06:07 PM 38.6819 -96.9019 47° Northeast 180 207 7,000  Level Kansas City Center
Mon 01:07:09 PM 38.7172 -96.8528 47° Northeast 182 209 7,000  Level Kansas City Center
Mon 01:08:11 PM 38.7525 -96.8056 46° Northeast 177 204 7,000  Level Kansas City Center
Mon 01:09:13 PM 38.7875 -96.7575 47° Northeast 177 204 7,000  Level Kansas City Center
Mon 01:10:16 PM 38.8217 -96.7103 47° Northeast 174 200 7,000  Level Kansas City Center
Mon 01:11:18 PM 38.8544 -96.6669 46° Northeast 176 203 7,000  Level Kansas City Center
Mon 01:12:20 PM 38.8883 -96.6194 47° Northeast 174 200 7,000  Level Kansas City Center
Mon 01:13:22 PM 38.9228 -96.5717 47° Northeast 175 201 7,000  Level Kansas City Center
Mon 01:14:24 PM 38.9572 -96.5239 47° Northeast 176 203 7,000  Level Kansas City Center
Mon 01:15:26 PM 38.9919 -96.4758 47° Northeast 176 203 7,000  Level Kansas City Center
Mon 01:16:28 PM 39.0267 -96.4278 47° Northeast 175 201 7,000  Level Kansas City Center
Mon 01:17:30 PM 39.0608 -96.3797 48° Northeast 175 201 7,000  Level Kansas City Center
Mon 01:18:32 PM 39.0958 -96.3314 47° Northeast 176 203 7,000  Level Kansas City Center
Mon 01:19:34 PM 39.1275 -96.2875 47° Northeast 176 203 7,000  Level Kansas City Center
Mon 01:20:36 PM 39.1622 -96.2386 48° Northeast 176 203 7,000  Level Kansas City Center
Mon 01:21:38 PM 39.1969 -96.1900 47° Northeast 176 203 7,000  Level Kansas City Center
Mon 01:22:40 PM 39.2278 -96.1461 48° Northeast 176 203 7,000  Level Kansas City Center
Mon 01:23:42 PM 39.2653 -96.0936 47° Northeast 178 205 7,000  Level Kansas City Center
Mon 01:24:44 PM 39.2975 -96.0483 47° Northeast 179 206 7,000  Level Kansas City Center
Mon 01:25:46 PM 39.3342 -95.9967 47° Northeast 175 201 7,000  Level Kansas City Center
Mon 01:26:48 PM 39.3656 -95.9522 48° Northeast 175 201 7,000  Level Kansas City Center
Mon 01:27:50 PM 39.4019 -95.9017 47° Northeast 171 197 7,000  Level Kansas City Center
Mon 01:28:52 PM 39.4325 -95.8572 48° Northeast 172 198 7,000  Level Kansas City Center
Mon 01:29:54 PM 39.4633 -95.8142 47° Northeast 171 197 7,000  Level Kansas City Center
Mon 01:30:56 PM 39.4994 -95.7628 48° Northeast 171 197 7,000  Level Kansas City Center
Mon 01:31:58 PM 39.5306 -95.7189 47° Northeast 172 198 7,000  Level Kansas City Center
Mon 01:33:00 PM 39.5672 -95.6667 48° Northeast 175 201 7,000  Level Kansas City Center
Mon 01:34:02 PM 39.5981 -95.6239 47° Northeast 170 196 7,000  Level Kansas City Center
Mon 01:35:04 PM 39.6331 -95.5736 48° Northeast 169 194 7,000  Level Kansas City Center
Mon 01:36:06 PM 39.6636 -95.5297 48° Northeast 170 196 7,000 -48 Level Kansas City Center
Mon 01:37:08 PM 39.6989 -95.4797 47° Northeast 170 196 6,900  Descending Kansas City Center
Mon 01:38:11 PM 39.7297 -95.4358 48° Northeast 171 197 7,000 48 Climbing Kansas City Center
Mon 01:39:13 PM 39.7650 -95.3853 48° Northeast 170 196 7,000  Level Kansas City Center
Mon 01:40:15 PM 39.7947 -95.3428 48° Northeast 167 192 7,000 -48 Level Kansas City Center
Mon 01:41:17 PM 39.8256 -95.2981 48° Northeast 172 198 6,900  Descending Kansas City Center
Mon 01:42:19 PM 39.8614 -95.2467 48° Northeast 171 197 7,000 48 Climbing Kansas City Center
Mon 01:43:21 PM 39.8947 -95.1975 49° Northeast 172 198 7,000  Level Kansas City Center
Mon 01:44:23 PM 39.9281 -95.1503 47° Northeast 172 198 7,000  Level Kansas City Center
Mon 01:45:25 PM 39.9581 -95.1067 48° Northeast 170 196 7,000  Level Kansas City Center
Mon 01:46:27 PM 39.9933 -95.0556 48° Northeast 169 194 7,000 -48 Level Kansas City Center
Mon 01:47:29 PM 40.0228 -95.0131 48° Northeast 166 191 6,900  Descending Kansas City Center
Mon 01:48:31 PM 40.0578 -94.9614 48° Northeast 169 194 7,000 48 Climbing Kansas City Center
Mon 01:49:33 PM 40.0861 -94.9194 49° Northeast 164 189 7,000  Level Kansas City Center
Mon 01:50:35 PM 40.1208 -94.8708 47° Northeast 164 189 7,000  Level Kansas City Center
Mon 01:51:37 PM 40.1486 -94.8275 50° Northeast 163 188 7,000  Level Kansas City Center
Mon 01:52:39 PM 40.1819 -94.7797 48° Northeast 161 185 7,000 -145 Level Kansas City Center
Mon 01:53:41 PM 40.2119 -94.7378 47° Northeast 162 186 6,700 -339 Descending Kansas City Center
Mon 01:54:43 PM 40.2431 -94.6931 48° Northeast 168 193 6,300 -435 Descending Kansas City Center
Mon 01:55:45 PM 40.2797 -94.6394 48° Northeast 173 199 5,800 -435 Descending Kansas City Center
Mon 01:56:47 PM 40.3111 -94.5914 49° Northeast 177 204 5,400 -387 Descending Kansas City Center
Mon 01:57:49 PM 40.3472 -94.5369 49° Northeast 178 205 5,000 -194 Descending Kansas City Center
Mon 01:58:51 PM 40.3769 -94.4922 49° Northeast 174 200 5,000  Level Kansas City Center
Mon 01:59:53 PM 40.4114 -94.4447 46° Northeast 166 191 5,000  Level Kansas City Center
Mon 02:00:55 PM 40.4431 -94.3986 48° Northeast 162 186 5,000  Level Kansas City Center
Mon 02:01:57 PM 40.4719 -94.3533 50° Northeast 163 188 5,000 -48 Level Kansas City Center
Mon 02:03:00 PM 40.5017 -94.3094 48° Northeast 163 188 4,900  Descending Kansas City Center
Mon 02:04:02 PM 40.5319 -94.2653 48° Northeast 163 188 5,000  Climbing Kansas City Center
Mon 02:05:04 PM 40.5614 -94.2208 49° Northeast 163 188 4,900  Descending Kansas City Center
Mon 02:06:06 PM 40.5969 -94.1689 48° Northeast 162 186 5,000 48 Climbing Kansas City Center
Mon 02:07:08 PM 40.6256 -94.1258 49° Northeast 160 184 5,000  Level Kansas City Center
Mon 02:08:10 PM 40.6547 -94.0811 49° Northeast 160 184 5,000  Level Kansas City Center
Mon 02:09:30 PM 40.6969 -94.0192 48° Northeast 162 186 5,000  Level Minneapolis Center
Mon 02:10:32 PM 40.7267 -93.9728 50° Northeast 164 189 5,000  Level Minneapolis Center
Mon 02:11:34 PM 40.7567 -93.9300 47° Northeast 163 188 5,000  Level Minneapolis Center
Mon 02:12:37 PM 40.7858 -93.8853 49° Northeast 162 186 5,000  Level Minneapolis Center
Mon 02:13:31 PM 40.8247 -93.8286 48° Northeast 163 188 5,000  Level Minneapolis Center
Mon 02:14:32 PM 40.8558 -93.7847 47° Northeast 165 190 5,000  Level Minneapolis Center
Mon 02:15:27 PM 40.8831 -93.7436 49° Northeast 163 188 5,000  Level Minneapolis Center
Mon 02:16:27 PM 40.9139 -93.6967 49° Northeast 164 189 5,000  Level Minneapolis Center
Mon 02:17:28 PM 40.9428 -93.6500 51° Northeast 166 191 5,000 -50 Level Minneapolis Center
Mon 02:18:28 PM 40.9853 -93.6214 27° Northeast 163 188 4,900  Descending Minneapolis Center
Mon 02:19:41 PM 41.0311 -93.5839 32° Northeast 165 190 5,000 41 Climbing Minneapolis Center
Mon 02:20:53 PM 41.0742 -93.5522 29° Northeast 167 192 5,000  Level Minneapolis Center
Mon 02:21:25 PM 41.1014 -93.5275 34° Northeast 168 193 5,000  Level Minneapolis Center
Mon 02:21:55 PM 41.1144 -93.5200 23° Northeast 168 193 5,000  Level Minneapolis Center
Mon 02:22:26 PM 41.1414 -93.4961 34° Northeast 167 192 5,000 -97 Level Minneapolis Center
Mon 02:22:57 PM 41.1567 -93.4853 28° Northeast 167 192 4,900 -333 Descending Minneapolis Center
Mon 02:23:38 PM 41.1914 -93.4528 35° Northeast 173 199 4,600 -706 Descending Minneapolis Center
Mon 02:24:39 PM 41.2219 -93.4000 52° Northeast 189 217 3,700 -1,293 Descending Minneapolis Center
Mon 02:25:34 PM 41.2569 -93.3522 46° Northeast 195 224 2,100 -1,341 Descending Minneapolis Center
Mon 02:26:04 PM 41.2692 -93.3367 44° Northeast 196 226 1,800 -261 Descending Minneapolis Center
Mon 02:27:06 PM 41.2928 -93.2908 56° Northeast 171 197 1,700 48 Descending Minneapolis Center
Mon 02:28:08 PM 41.3214 -93.2383 54° Northeast 158 182 1,900 97 Climbing Minneapolis Center
Mon 02:29:10 PM 41.3447 -93.1983 52° Northeast 160 184 1,900 48 Level Minneapolis Center
Mon 02:30:12 PM 41.3700 -93.1322 63° Northeast 162 186 2,000 97 Climbing Minneapolis Center
Mon 02:31:14 PM 41.3936 -93.0772 60° Northeast 161 185 2,100  Climbing Minneapolis Center
Mon 02:32:16 PM 41.4142 -93.0300 60° Northeast 161 185 2,000 -97 Descending Minneapolis Center

Login

Don't have an account? Register now (free) for customized features, flight alerts, and more!